| |
Missouri Department of Transportation

Social Media Facebook Twitter Flickr Instagram YouTube RSS

Current AWOS Information

AWOS Home - General Info for all Airports
Current AWOS for all Airports - Current METAR for all Airports
Glossary - Disclaimer - Other Links

Recent AWOS History
11/30/15     02:02 AM CST      08:02 GMT
Air Temperature 38°F (3°C ) 1st Cloud Layer Overcast at 200 feet
Dew Point 38°F (3°C) 2nd Cloud Layer  
Barometric Pressure 30.08 in Hg. 3rd Cloud Layer  
Wind Speed 4 mph (4 knots) Density Altitude  
Peak Wind Gusts   Variable Wind Directions  
Wind Direction Quadrant(050°) Variable Visibility  
Visibility 1 1/4 statute miles  

Thunderstorm and Precipitation Identification:  Mist
Thunderstorm Remarks:  Lightning Information Not Available

Current METAR Record: METAR KNVD 300759Z AUTO 05004KT 1 1/4SM BR OVC002 03/03 A3008 RMK AO2 TSNO




About Us
How Do I...
Contact Us
Missouri Department of Transportation
Central Office
105 W. Capitol Avenue
Jefferson City, MO 65102
1-888-ASK-MODOT (275-6636)
1-866-831-6277 (Motor Carrier Services)
Driver's License Offices
| | |
Missouri State Government
© 2013 Missouri Department of Transportation. All Rights Reserved.   Privacy Policy.
RSS FeedYoutubeBlogFlickrTwitter Facebook